sensor_id;sensor_type;location;lat;lon;timestamp;temperature;humidity
68217;DHT22;55037;52.354;4.992;2023-06-14T00:01:36;21.70;46.80
68217;DHT22;55037;52.354;4.992;2023-06-14T00:04:05;21.70;46.50
68217;DHT22;55037;52.354;4.992;2023-06-14T00:06:33;21.60;46.10
68217;DHT22;55037;52.354;4.992;2023-06-14T00:09:00;21.60;45.90
68217;DHT22;55037;52.354;4.992;2023-06-14T00:11:28;21.60;45.70
68217;DHT22;55037;52.354;4.992;2023-06-14T00:13:57;21.50;45.30
68217;DHT22;55037;52.354;4.992;2023-06-14T00:16:24;21.50;45.10
68217;DHT22;55037;52.354;4.992;2023-06-14T00:18:51;21.50;44.90
68217;DHT22;55037;52.354;4.992;2023-06-14T00:21:19;21.50;44.80
68217;DHT22;55037;52.354;4.992;2023-06-14T00:23:47;21.40;44.70
68217;DHT22;55037;52.354;4.992;2023-06-14T00:26:14;21.40;44.60
68217;DHT22;55037;52.354;4.992;2023-06-14T00:28:42;21.40;44.50
68217;DHT22;55037;52.354;4.992;2023-06-14T00:31:10;21.40;44.60
68217;DHT22;55037;52.354;4.992;2023-06-14T00:33:37;21.40;44.60
68217;DHT22;55037;52.354;4.992;2023-06-14T00:36:04;21.30;44.60
68217;DHT22;55037;52.354;4.992;2023-06-14T00:38:32;21.30;44.60
68217;DHT22;55037;52.354;4.992;2023-06-14T00:40:59;21.30;44.40
68217;DHT22;55037;52.354;4.992;2023-06-14T00:43:27;21.20;44.30
68217;DHT22;55037;52.354;4.992;2023-06-14T00:45:54;21.20;44.10
68217;DHT22;55037;52.354;4.992;2023-06-14T00:48:22;21.20;43.90
68217;DHT22;55037;52.354;4.992;2023-06-14T00:50:50;21.20;43.70
68217;DHT22;55037;52.354;4.992;2023-06-14T00:53:19;21.20;43.60
68217;DHT22;55037;52.354;4.992;2023-06-14T00:55:52;21.10;43.60
68217;DHT22;55037;52.354;4.992;2023-06-14T00:58:22;21.10;43.70
68217;DHT22;55037;52.354;4.992;2023-06-14T01:00:49;21.10;42.80
68217;DHT22;55037;52.354;4.992;2023-06-14T01:03:18;21.00;43.60
68217;DHT22;55037;52.354;4.992;2023-06-14T01:05:56;21.10;43.70
68217;DHT22;55037;52.354;4.992;2023-06-14T01:08:47;21.10;43.70
68217;DHT22;55037;52.354;4.992;2023-06-14T01:11:24;21.00;43.60
68217;DHT22;55037;52.354;4.992;2023-06-14T01:13:55;20.90;43.60
68217;DHT22;55037;52.354;4.992;2023-06-14T01:16:23;20.80;43.90
68217;DHT22;55037;52.354;4.992;2023-06-14T01:18:52;20.80;43.90
68217;DHT22;55037;52.354;4.992;2023-06-14T01:21:24;20.70;43.80
68217;DHT22;55037;52.354;4.992;2023-06-14T01:23:52;20.70;43.80
68217;DHT22;55037;52.354;4.992;2023-06-14T01:26:23;20.60;43.80
68217;DHT22;55037;52.354;4.992;2023-06-14T01:28:53;20.60;44.00
68217;DHT22;55037;52.354;4.992;2023-06-14T01:31:26;20.60;44.00
68217;DHT22;55037;52.354;4.992;2023-06-14T01:33:54;20.60;43.90
68217;DHT22;55037;52.354;4.992;2023-06-14T01:36:26;20.60;43.90
68217;DHT22;55037;52.354;4.992;2023-06-14T01:38:59;20.50;43.90
68217;DHT22;55037;52.354;4.992;2023-06-14T01:41:27;20.50;43.80
68217;DHT22;55037;52.354;4.992;2023-06-14T01:43:55;20.50;44.00
68217;DHT22;55037;52.354;4.992;2023-06-14T01:46:23;20.50;44.00
68217;DHT22;55037;52.354;4.992;2023-06-14T01:48:54;20.40;44.00
68217;DHT22;55037;52.354;4.992;2023-06-14T01:51:21;20.40;43.80
68217;DHT22;55037;52.354;4.992;2023-06-14T01:53:48;20.40;43.80
68217;DHT22;55037;52.354;4.992;2023-06-14T01:56:16;20.40;43.70
68217;DHT22;55037;52.354;4.992;2023-06-14T01:58:43;20.40;43.70
68217;DHT22;55037;52.354;4.992;2023-06-14T02:01:10;20.30;43.50
68217;DHT22;55037;52.354;4.992;2023-06-14T02:03:39;20.30;43.40
68217;DHT22;55037;52.354;4.992;2023-06-14T02:06:07;20.30;43.40
68217;DHT22;55037;52.354;4.992;2023-06-14T02:08:34;20.30;43.40
68217;DHT22;55037;52.354;4.992;2023-06-14T02:11:01;20.20;43.30
68217;DHT22;55037;52.354;4.992;2023-06-14T02:13:29;20.30;43.30
68217;DHT22;55037;52.354;4.992;2023-06-14T02:15:56;20.20;43.30
68217;DHT22;55037;52.354;4.992;2023-06-14T02:18:24;20.20;43.40
68217;DHT22;55037;52.354;4.992;2023-06-14T02:20:51;20.20;43.50
68217;DHT22;55037;52.354;4.992;2023-06-14T02:23:18;20.20;43.60
68217;DHT22;55037;52.354;4.992;2023-06-14T02:25:46;20.20;43.90
68217;DHT22;55037;52.354;4.992;2023-06-14T02:28:13;20.20;44.10
68217;DHT22;55037;52.354;4.992;2023-06-14T02:30:41;20.20;44.30
68217;DHT22;55037;52.354;4.992;2023-06-14T02:33:08;20.20;44.40
68217;DHT22;55037;52.354;4.992;2023-06-14T02:35:40;20.20;44.40
68217;DHT22;55037;52.354;4.992;2023-06-14T02:38:08;20.20;44.50
68217;DHT22;55037;52.354;4.992;2023-06-14T02:40:35;20.10;44.50
68217;DHT22;55037;52.354;4.992;2023-06-14T02:43:02;20.10;44.70
68217;DHT22;55037;52.354;4.992;2023-06-14T02:45:30;20.00;45.30
68217;DHT22;55037;52.354;4.992;2023-06-14T02:47:57;20.10;45.30
68217;DHT22;55037;52.354;4.992;2023-06-14T02:50:24;20.00;45.30
68217;DHT22;55037;52.354;4.992;2023-06-14T02:52:51;20.00;45.50
68217;DHT22;55037;52.354;4.992;2023-06-14T02:55:19;19.90;45.40
68217;DHT22;55037;52.354;4.992;2023-06-14T02:57:47;19.90;45.70
68217;DHT22;55037;52.354;4.992;2023-06-14T03:00:15;19.80;46.00
68217;DHT22;55037;52.354;4.992;2023-06-14T03:02:46;19.80;46.30
68217;DHT22;55037;52.354;4.992;2023-06-14T03:05:13;19.70;46.40
68217;DHT22;55037;52.354;4.992;2023-06-14T03:07:41;19.70;46.60
68217;DHT22;55037;52.354;4.992;2023-06-14T03:10:12;19.60;46.60
68217;DHT22;55037;52.354;4.992;2023-06-14T03:12:43;19.60;46.60
68217;DHT22;55037;52.354;4.992;2023-06-14T03:15:11;19.60;46.80
68217;DHT22;55037;52.354;4.992;2023-06-14T03:17:43;19.60;47.00
68217;DHT22;55037;52.354;4.992;2023-06-14T03:20:14;19.60;47.10
68217;DHT22;55037;52.354;4.992;2023-06-14T03:22:43;19.50;47.10
68217;DHT22;55037;52.354;4.992;2023-06-14T03:25:13;19.50;47.30
68217;DHT22;55037;52.354;4.992;2023-06-14T03:27:41;19.50;47.50
68217;DHT22;55037;52.354;4.992;2023-06-14T03:30:08;19.50;47.60
68217;DHT22;55037;52.354;4.992;2023-06-14T03:32:37;19.40;47.50
68217;DHT22;55037;52.354;4.992;2023-06-14T03:35:05;19.40;47.40
68217;DHT22;55037;52.354;4.992;2023-06-14T03:37:33;19.40;47.20
68217;DHT22;55037;52.354;4.992;2023-06-14T03:40:01;19.40;46.70
68217;DHT22;55037;52.354;4.992;2023-06-14T03:42:31;19.40;46.50
68217;DHT22;55037;52.354;4.992;2023-06-14T03:44:58;19.30;46.40
68217;DHT22;55037;52.354;4.992;2023-06-14T03:47:26;19.30;46.50
68217;DHT22;55037;52.354;4.992;2023-06-14T03:49:55;19.30;46.50
68217;DHT22;55037;52.354;4.992;2023-06-14T03:52:22;19.30;46.40
68217;DHT22;55037;52.354;4.992;2023-06-14T03:54:50;19.30;46.40
68217;DHT22;55037;52.354;4.992;2023-06-14T03:57:23;19.30;46.50
68217;DHT22;55037;52.354;4.992;2023-06-14T03:59:50;19.30;46.60
68217;DHT22;55037;52.354;4.992;2023-06-14T04:02:18;19.30;46.70
68217;DHT22;55037;52.354;4.992;2023-06-14T04:04:46;19.40;46.40
68217;DHT22;55037;52.354;4.992;2023-06-14T04:07:15;19.40;46.40
68217;DHT22;55037;52.354;4.992;2023-06-14T04:09:47;19.40;46.40
68217;DHT22;55037;52.354;4.992;2023-06-14T04:12:14;19.40;46.20
68217;DHT22;55037;52.354;4.992;2023-06-14T04:14:41;19.40;45.90
68217;DHT22;55037;52.354;4.992;2023-06-14T04:17:10;19.40;45.60
68217;DHT22;55037;52.354;4.992;2023-06-14T04:19:39;19.40;45.60
68217;DHT22;55037;52.354;4.992;2023-06-14T04:22:07;19.50;45.50
68217;DHT22;55037;52.354;4.992;2023-06-14T04:24:35;19.50;45.60
68217;DHT22;55037;52.354;4.992;2023-06-14T04:27:04;19.50;45.40
68217;DHT22;55037;52.354;4.992;2023-06-14T04:29:31;19.60;45.30
68217;DHT22;55037;52.354;4.992;2023-06-14T04:32:04;19.60;45.30
68217;DHT22;55037;52.354;4.992;2023-06-14T04:34:32;19.60;45.20
68217;DHT22;55037;52.354;4.992;2023-06-14T04:37:02;19.60;45.10
68217;DHT22;55037;52.354;4.992;2023-06-14T04:39:32;19.60;45.00
68217;DHT22;55037;52.354;4.992;2023-06-14T04:42:01;19.70;44.80
68217;DHT22;55037;52.354;4.992;2023-06-14T04:44:31;19.70;44.60
68217;DHT22;55037;52.354;4.992;2023-06-14T04:47:01;19.70;44.50
68217;DHT22;55037;52.354;4.992;2023-06-14T04:49:29;19.70;44.30
68217;DHT22;55037;52.354;4.992;2023-06-14T04:51:58;19.80;44.30
68217;DHT22;55037;52.354;4.992;2023-06-14T04:54:28;19.80;44.10
68217;DHT22;55037;52.354;4.992;2023-06-14T04:56:59;19.80;44.10
68217;DHT22;55037;52.354;4.992;2023-06-14T04:59:27;19.90;44.10
68217;DHT22;55037;52.354;4.992;2023-06-14T05:01:54;19.90;43.90
68217;DHT22;55037;52.354;4.992;2023-06-14T05:04:24;19.90;43.70
68217;DHT22;55037;52.354;4.992;2023-06-14T05:06:53;19.90;43.60
68217;DHT22;55037;52.354;4.992;2023-06-14T05:09:22;20.00;43.60
68217;DHT22;55037;52.354;4.992;2023-06-14T05:11:50;20.00;43.30
68217;DHT22;55037;52.354;4.992;2023-06-14T05:14:17;20.10;43.40
68217;DHT22;55037;52.354;4.992;2023-06-14T05:16:46;20.10;43.20
68217;DHT22;55037;52.354;4.992;2023-06-14T05:19:15;20.20;43.10
68217;DHT22;55037;52.354;4.992;2023-06-14T05:21:44;20.20;42.90
68217;DHT22;55037;52.354;4.992;2023-06-14T05:24:12;20.30;42.90
68217;DHT22;55037;52.354;4.992;2023-06-14T05:26:39;20.30;42.80
68217;DHT22;55037;52.354;4.992;2023-06-14T05:29:07;20.40;42.70
68217;DHT22;55037;52.354;4.992;2023-06-14T05:31:34;20.50;42.60
68217;DHT22;55037;52.354;4.992;2023-06-14T05:34:01;20.50;42.50
68217;DHT22;55037;52.354;4.992;2023-06-14T05:36:29;20.60;42.50
68217;DHT22;55037;52.354;4.992;2023-06-14T05:38:56;20.60;42.40
68217;DHT22;55037;52.354;4.992;2023-06-14T05:41:27;20.60;42.20
68217;DHT22;55037;52.354;4.992;2023-06-14T05:43:55;20.80;42.20
68217;DHT22;55037;52.354;4.992;2023-06-14T05:46:23;20.80;42.00
68217;DHT22;55037;52.354;4.992;2023-06-14T05:48:55;20.80;41.90
68217;DHT22;55037;52.354;4.992;2023-06-14T05:51:23;20.90;41.80
68217;DHT22;55037;52.354;4.992;2023-06-14T05:53:52;20.90;41.80
68217;DHT22;55037;52.354;4.992;2023-06-14T05:56:20;21.10;41.70
68217;DHT22;55037;52.354;4.992;2023-06-14T05:58:47;21.10;41.80
68217;DHT22;55037;52.354;4.992;2023-06-14T06:01:15;21.20;41.60
68217;DHT22;55037;52.354;4.992;2023-06-14T06:03:42;21.20;41.40
68217;DHT22;55037;52.354;4.992;2023-06-14T06:06:14;21.30;41.30
68217;DHT22;55037;52.354;4.992;2023-06-14T06:08:41;21.30;41.20
68217;DHT22;55037;52.354;4.992;2023-06-14T06:11:08;21.40;41.10
68217;DHT22;55037;52.354;4.992;2023-06-14T06:13:36;21.50;41.00
68217;DHT22;55037;52.354;4.992;2023-06-14T06:16:04;21.60;40.80
68217;DHT22;55037;52.354;4.992;2023-06-14T06:18:32;21.60;40.50
68217;DHT22;55037;52.354;4.992;2023-06-14T06:20:59;21.70;40.40
68217;DHT22;55037;52.354;4.992;2023-06-14T06:23:26;21.80;40.50
68217;DHT22;55037;52.354;4.992;2023-06-14T06:25:54;21.90;40.50
68217;DHT22;55037;52.354;4.992;2023-06-14T06:28:21;21.90;40.20
68217;DHT22;55037;52.354;4.992;2023-06-14T06:30:48;22.00;39.00
68217;DHT22;55037;52.354;4.992;2023-06-14T06:33:16;22.00;40.00
68217;DHT22;55037;52.354;4.992;2023-06-14T06:35:43;22.10;39.80
68217;DHT22;55037;52.354;4.992;2023-06-14T06:38:10;22.10;39.70
68217;DHT22;55037;52.354;4.992;2023-06-14T06:40:37;22.30;39.50
68217;DHT22;55037;52.354;4.992;2023-06-14T06:43:05;22.40;39.40
68217;DHT22;55037;52.354;4.992;2023-06-14T06:45:40;22.50;39.00
68217;DHT22;55037;52.354;4.992;2023-06-14T06:48:07;22.50;38.70
68217;DHT22;55037;52.354;4.992;2023-06-14T06:50:37;22.60;38.80
68217;DHT22;55037;52.354;4.992;2023-06-14T06:53:04;22.70;38.60
68217;DHT22;55037;52.354;4.992;2023-06-14T06:55:32;22.80;38.40
68217;DHT22;55037;52.354;4.992;2023-06-14T06:57:59;22.90;38.20
68217;DHT22;55037;52.354;4.992;2023-06-14T07:00:27;22.90;38.10
68217;DHT22;55037;52.354;4.992;2023-06-14T07:02:55;23.10;37.70
68217;DHT22;55037;52.354;4.992;2023-06-14T07:05:23;23.10;37.50
68217;DHT22;55037;52.354;4.992;2023-06-14T07:07:50;23.20;37.60
68217;DHT22;55037;52.354;4.992;2023-06-14T07:10:18;23.20;37.40
68217;DHT22;55037;52.354;4.992;2023-06-14T07:12:45;23.30;37.20
68217;DHT22;55037;52.354;4.992;2023-06-14T07:15:13;23.40;37.20
68217;DHT22;55037;52.354;4.992;2023-06-14T07:17:41;23.50;36.90
68217;DHT22;55037;52.354;4.992;2023-06-14T07:20:09;23.60;37.30
68217;DHT22;55037;52.354;4.992;2023-06-14T07:22:41;23.80;36.50
68217;DHT22;55037;52.354;4.992;2023-06-14T07:25:10;23.90;36.10
68217;DHT22;55037;52.354;4.992;2023-06-14T07:27:43;24.00;35.70
68217;DHT22;55037;52.354;4.992;2023-06-14T07:30:11;24.00;35.00
68217;DHT22;55037;52.354;4.992;2023-06-14T07:32:38;24.10;34.80
68217;DHT22;55037;52.354;4.992;2023-06-14T07:35:06;24.10;34.70
68217;DHT22;55037;52.354;4.992;2023-06-14T07:37:33;24.30;34.70
68217;DHT22;55037;52.354;4.992;2023-06-14T07:40:01;24.50;34.50
68217;DHT22;55037;52.354;4.992;2023-06-14T07:42:31;24.60;33.80
68217;DHT22;55037;52.354;4.992;2023-06-14T07:44:58;24.70;33.80
68217;DHT22;55037;52.354;4.992;2023-06-14T07:47:26;25.00;33.60
68217;DHT22;55037;52.354;4.992;2023-06-14T07:49:53;25.10;33.10
68217;DHT22;55037;52.354;4.992;2023-06-14T07:52:20;25.20;32.80
68217;DHT22;55037;52.354;4.992;2023-06-14T07:54:48;25.20;32.30
68217;DHT22;55037;52.354;4.992;2023-06-14T07:57:15;25.20;31.70
68217;DHT22;55037;52.354;4.992;2023-06-14T07:59:42;25.30;31.70
68217;DHT22;55037;52.354;4.992;2023-06-14T08:02:10;25.30;31.40
68217;DHT22;55037;52.354;4.992;2023-06-14T08:04:37;25.40;31.30
68217;DHT22;55037;52.354;4.992;2023-06-14T08:07:05;25.50;31.30
68217;DHT22;55037;52.354;4.992;2023-06-14T08:09:35;25.70;31.50
68217;DHT22;55037;52.354;4.992;2023-06-14T08:12:05;25.80;31.00
68217;DHT22;55037;52.354;4.992;2023-06-14T08:14:38;25.90;30.20
68217;DHT22;55037;52.354;4.992;2023-06-14T08:17:07;25.90;29.90
68217;DHT22;55037;52.354;4.992;2023-06-14T08:19:34;25.90;30.00
68217;DHT22;55037;52.354;4.992;2023-06-14T08:22:01;26.00;29.60
68217;DHT22;55037;52.354;4.992;2023-06-14T08:24:29;26.20;29.60
68217;DHT22;55037;52.354;4.992;2023-06-14T08:26:57;26.30;29.30
68217;DHT22;55037;52.354;4.992;2023-06-14T08:29:25;26.50;29.20
68217;DHT22;55037;52.354;4.992;2023-06-14T08:31:52;26.50;28.70
68217;DHT22;55037;52.354;4.992;2023-06-14T08:34:19;26.60;28.90
68217;DHT22;55037;52.354;4.992;2023-06-14T08:36:52;26.70;28.90
68217;DHT22;55037;52.354;4.992;2023-06-14T08:39:20;26.90;28.40
68217;DHT22;55037;52.354;4.992;2023-06-14T08:41:47;27.00;27.90
68217;DHT22;55037;52.354;4.992;2023-06-14T08:44:18;27.20;27.90
68217;DHT22;55037;52.354;4.992;2023-06-14T08:46:47;27.30;27.60
68217;DHT22;55037;52.354;4.992;2023-06-14T08:49:18;27.40;27.50
68217;DHT22;55037;52.354;4.992;2023-06-14T08:51:45;27.60;27.30
68217;DHT22;55037;52.354;4.992;2023-06-14T08:54:15;27.70;27.20
68217;DHT22;55037;52.354;4.992;2023-06-14T08:56:43;27.90;26.90
68217;DHT22;55037;52.354;4.992;2023-06-14T08:59:11;28.10;26.60
68217;DHT22;55037;52.354;4.992;2023-06-14T09:01:39;28.20;26.20
68217;DHT22;55037;52.354;4.992;2023-06-14T09:04:12;28.40;25.90
68217;DHT22;55037;52.354;4.992;2023-06-14T09:06:40;28.40;25.30
68217;DHT22;55037;52.354;4.992;2023-06-14T09:09:07;28.40;25.40
68217;DHT22;55037;52.354;4.992;2023-06-14T09:11:36;28.40;25.40
68217;DHT22;55037;52.354;4.992;2023-06-14T09:14:04;28.50;25.20
68217;DHT22;55037;52.354;4.992;2023-06-14T09:16:32;28.70;24.90
68217;DHT22;55037;52.354;4.992;2023-06-14T09:19:00;29.20;24.90
68217;DHT22;55037;52.354;4.992;2023-06-14T09:21:27;30.90;23.50
68217;DHT22;55037;52.354;4.992;2023-06-14T09:23:59;32.30;21.90
68217;DHT22;55037;52.354;4.992;2023-06-14T09:26:27;34.00;20.40
68217;DHT22;55037;52.354;4.992;2023-06-14T09:28:54;35.70;18.40
68217;DHT22;55037;52.354;4.992;2023-06-14T09:31:22;37.30;16.90
68217;DHT22;55037;52.354;4.992;2023-06-14T09:33:50;38.20;15.80
68217;DHT22;55037;52.354;4.992;2023-06-14T09:36:21;38.60;15.00
68217;DHT22;55037;52.354;4.992;2023-06-14T09:44:04;36.30;15.90
68217;DHT22;55037;52.354;4.992;2023-06-14T09:46:37;35.00;16.90
68217;DHT22;55037;52.354;4.992;2023-06-14T09:49:05;33.90;17.60
68217;DHT22;55037;52.354;4.992;2023-06-14T09:51:33;33.20;18.30
68217;DHT22;55037;52.354;4.992;2023-06-14T09:54:03;32.60;18.40
68217;DHT22;55037;52.354;4.992;2023-06-14T09:56:46;32.30;18.60
68217;DHT22;55037;52.354;4.992;2023-06-14T09:59:18;32.30;18.80
68217;DHT22;55037;52.354;4.992;2023-06-14T10:01:48;32.50;18.90
68217;DHT22;55037;52.354;4.992;2023-06-14T10:04:19;33.30;18.30
68217;DHT22;55037;52.354;4.992;2023-06-14T10:06:49;34.70;17.20
68217;DHT22;55037;52.354;4.992;2023-06-14T10:09:18;35.70;15.80
68217;DHT22;55037;52.354;4.992;2023-06-14T10:11:45;36.00;15.60
68217;DHT22;55037;52.354;4.992;2023-06-14T10:14:13;36.00;15.90
68217;DHT22;55037;52.354;4.992;2023-06-14T10:19:33;35.40;15.70
68217;DHT22;55037;52.354;4.992;2023-06-14T10:22:16;35.10;15.80
68217;DHT22;55037;52.354;4.992;2023-06-14T10:24:45;34.50;16.20
68217;DHT22;55037;52.354;4.992;2023-06-14T10:27:16;34.40;16.90
68217;DHT22;55037;52.354;4.992;2023-06-14T10:32:22;34.60;17.10
68217;DHT22;55037;52.354;4.992;2023-06-14T10:34:58;34.60;17.60
68217;DHT22;55037;52.354;4.992;2023-06-14T10:37:26;34.70;17.40
68217;DHT22;55037;52.354;4.992;2023-06-14T10:39:53;34.60;16.80
68217;DHT22;55037;52.354;4.992;2023-06-14T10:42:21;34.50;16.90
68217;DHT22;55037;52.354;4.992;2023-06-14T10:47:33;34.30;16.70
68217;DHT22;55037;52.354;4.992;2023-06-14T10:50:05;34.40;17.00
68217;DHT22;55037;52.354;4.992;2023-06-14T10:52:35;34.40;16.70
68217;DHT22;55037;52.354;4.992;2023-06-14T10:55:15;34.40;17.40
68217;DHT22;55037;52.354;4.992;2023-06-14T11:00:20;34.70;17.00
68217;DHT22;55037;52.354;4.992;2023-06-14T11:05:54;37.60;17.00
68217;DHT22;55037;52.354;4.992;2023-06-14T11:08:51;39.60;15.60
68217;DHT22;55037;52.354;4.992;2023-06-14T11:11:25;41.80;14.60
68217;DHT22;55037;52.354;4.992;2023-06-14T11:13:57;43.40;13.50
68217;DHT22;55037;52.354;4.992;2023-06-14T11:16:26;44.70;12.30
68217;DHT22;55037;52.354;4.992;2023-06-14T11:18:55;45.50;11.50
68217;DHT22;55037;52.354;4.992;2023-06-14T11:21:24;46.30;11.10
68217;DHT22;55037;52.354;4.992;2023-06-14T11:23:52;46.90;10.80
68217;DHT22;55037;52.354;4.992;2023-06-14T11:26:29;47.30;10.90
68217;DHT22;55037;52.354;4.992;2023-06-14T11:28:58;47.50;10.90
68217;DHT22;55037;52.354;4.992;2023-06-14T11:31:27;48.00;10.70
68217;DHT22;55037;52.354;4.992;2023-06-14T11:33:56;48.50;10.30
68217;DHT22;55037;52.354;4.992;2023-06-14T11:36:30;48.90;9.90
68217;DHT22;55037;52.354;4.992;2023-06-14T11:39:03;49.30;9.70
68217;DHT22;55037;52.354;4.992;2023-06-14T11:41:41;49.40;9.60
68217;DHT22;55037;52.354;4.992;2023-06-14T11:44:09;49.30;9.50
68217;DHT22;55037;52.354;4.992;2023-06-14T11:46:36;49.30;9.10
68217;DHT22;55037;52.354;4.992;2023-06-14T11:49:04;49.50;9.00
68217;DHT22;55037;52.354;4.992;2023-06-14T11:51:34;49.30;8.80
68217;DHT22;55037;52.354;4.992;2023-06-14T11:54:03;49.10;9.00
68217;DHT22;55037;52.354;4.992;2023-06-14T11:56:31;49.10;8.90
68217;DHT22;55037;52.354;4.992;2023-06-14T11:59:03;49.30;8.70
68217;DHT22;55037;52.354;4.992;2023-06-14T12:01:36;49.40;8.80
68217;DHT22;55037;52.354;4.992;2023-06-14T12:04:05;49.60;8.70
68217;DHT22;55037;52.354;4.992;2023-06-14T12:06:32;49.60;8.70
68217;DHT22;55037;52.354;4.992;2023-06-14T12:09:07;49.20;8.80
68217;DHT22;55037;52.354;4.992;2023-06-14T12:11:39;49.00;8.80
68217;DHT22;55037;52.354;4.992;2023-06-14T12:14:08;49.00;9.00
68217;DHT22;55037;52.354;4.992;2023-06-14T12:16:39;49.00;9.20
68217;DHT22;55037;52.354;4.992;2023-06-14T12:19:13;49.10;9.40
68217;DHT22;55037;52.354;4.992;2023-06-14T12:21:41;49.20;9.40
68217;DHT22;55037;52.354;4.992;2023-06-14T12:24:09;49.20;9.20
68217;DHT22;55037;52.354;4.992;2023-06-14T12:26:41;49.40;9.30
68217;DHT22;55037;52.354;4.992;2023-06-14T12:29:08;49.50;9.20
68217;DHT22;55037;52.354;4.992;2023-06-14T12:31:36;49.60;9.30
68217;DHT22;55037;52.354;4.992;2023-06-14T12:34:03;49.70;9.20
68217;DHT22;55037;52.354;4.992;2023-06-14T12:36:31;49.60;9.20
68217;DHT22;55037;52.354;4.992;2023-06-14T12:38:59;49.40;9.20
68217;DHT22;55037;52.354;4.992;2023-06-14T12:41:29;48.90;9.30
68217;DHT22;55037;52.354;4.992;2023-06-14T12:43:57;48.90;9.50
68217;DHT22;55037;52.354;4.992;2023-06-14T12:46:26;49.10;9.40
68217;DHT22;55037;52.354;4.992;2023-06-14T12:48:54;49.40;9.30
68217;DHT22;55037;52.354;4.992;2023-06-14T12:51:21;49.40;9.30
68217;DHT22;55037;52.354;4.992;2023-06-14T12:53:49;49.40;9.40
68217;DHT22;55037;52.354;4.992;2023-06-14T12:56:16;49.00;9.60
68217;DHT22;55037;52.354;4.992;2023-06-14T12:58:44;48.70;10.30
68217;DHT22;55037;52.354;4.992;2023-06-14T13:01:11;48.70;9.50
68217;DHT22;55037;52.354;4.992;2023-06-14T13:03:39;48.90;9.50
68217;DHT22;55037;52.354;4.992;2023-06-14T13:06:06;48.90;9.40
68217;DHT22;55037;52.354;4.992;2023-06-14T13:08:33;48.70;9.50
68217;DHT22;55037;52.354;4.992;2023-06-14T13:11:01;48.60;9.50
68217;DHT22;55037;52.354;4.992;2023-06-14T13:13:28;48.40;9.50
68217;DHT22;55037;52.354;4.992;2023-06-14T13:15:55;48.20;9.40
68217;DHT22;55037;52.354;4.992;2023-06-14T13:18:22;48.30;9.30
68217;DHT22;55037;52.354;4.992;2023-06-14T13:20:50;48.20;9.00
68217;DHT22;55037;52.354;4.992;2023-06-14T13:23:17;48.20;9.30
68217;DHT22;55037;52.354;4.992;2023-06-14T13:25:44;48.20;9.50
68217;DHT22;55037;52.354;4.992;2023-06-14T13:28:12;48.30;9.60
68217;DHT22;55037;52.354;4.992;2023-06-14T13:30:39;48.40;9.50
68217;DHT22;55037;52.354;4.992;2023-06-14T13:33:06;48.10;9.40
68217;DHT22;55037;52.354;4.992;2023-06-14T13:35:34;48.00;10.10
68217;DHT22;55037;52.354;4.992;2023-06-14T13:38:01;47.70;9.30
68217;DHT22;55037;52.354;4.992;2023-06-14T13:40:29;47.40;9.70
68217;DHT22;55037;52.354;4.992;2023-06-14T13:42:56;47.20;9.70
68217;DHT22;55037;52.354;4.992;2023-06-14T13:45:24;47.20;10.40
68217;DHT22;55037;52.354;4.992;2023-06-14T13:47:51;46.90;9.10
68217;DHT22;55037;52.354;4.992;2023-06-14T13:50:19;46.70;9.20
68217;DHT22;55037;52.354;4.992;2023-06-14T13:52:47;46.40;9.40
68217;DHT22;55037;52.354;4.992;2023-06-14T13:55:17;46.30;9.40
68217;DHT22;55037;52.354;4.992;2023-06-14T13:57:44;46.10;9.50
68217;DHT22;55037;52.354;4.992;2023-06-14T14:00:13;45.90;9.70
68217;DHT22;55037;52.354;4.992;2023-06-14T14:02:41;45.70;10.30
68217;DHT22;55037;52.354;4.992;2023-06-14T14:05:10;45.50;10.60
68217;DHT22;55037;52.354;4.992;2023-06-14T14:07:37;45.30;10.40
68217;DHT22;55037;52.354;4.992;2023-06-14T14:10:05;45.20;10.20
68217;DHT22;55037;52.354;4.992;2023-06-14T14:12:33;45.10;9.80
68217;DHT22;55037;52.354;4.992;2023-06-14T14:15:00;44.90;9.70
68217;DHT22;55037;52.354;4.992;2023-06-14T14:17:28;44.70;10.00
68217;DHT22;55037;52.354;4.992;2023-06-14T14:19:55;44.60;10.00
68217;DHT22;55037;52.354;4.992;2023-06-14T14:22:23;44.40;10.10
68217;DHT22;55037;52.354;4.992;2023-06-14T14:24:52;44.40;10.40
68217;DHT22;55037;52.354;4.992;2023-06-14T14:27:19;44.30;10.40
68217;DHT22;55037;52.354;4.992;2023-06-14T14:29:47;44.30;10.60
68217;DHT22;55037;52.354;4.992;2023-06-14T14:32:14;44.10;10.90
68217;DHT22;55037;52.354;4.992;2023-06-14T14:34:42;44.20;10.90
68217;DHT22;55037;52.354;4.992;2023-06-14T14:37:09;43.90;11.10
68217;DHT22;55037;52.354;4.992;2023-06-14T14:39:37;43.90;11.20
68217;DHT22;55037;52.354;4.992;2023-06-14T14:42:04;43.90;11.40
68217;DHT22;55037;52.354;4.992;2023-06-14T14:44:34;44.10;11.30
68217;DHT22;55037;52.354;4.992;2023-06-14T14:47:01;44.30;11.20
68217;DHT22;55037;52.354;4.992;2023-06-14T14:49:28;44.00;10.90
68217;DHT22;55037;52.354;4.992;2023-06-14T14:51:56;43.70;11.90
68217;DHT22;55037;52.354;4.992;2023-06-14T14:54:31;43.70;11.40
68217;DHT22;55037;52.354;4.992;2023-06-14T14:56:58;43.80;11.10
68217;DHT22;55037;52.354;4.992;2023-06-14T14:59:26;43.70;11.00
68217;DHT22;55037;52.354;4.992;2023-06-14T15:01:53;43.60;11.00
68217;DHT22;55037;52.354;4.992;2023-06-14T15:04:20;43.20;11.10
68217;DHT22;55037;52.354;4.992;2023-06-14T15:06:48;43.10;11.50
68217;DHT22;55037;52.354;4.992;2023-06-14T15:09:15;43.00;11.80
68217;DHT22;55037;52.354;4.992;2023-06-14T15:11:42;42.90;11.90
68217;DHT22;55037;52.354;4.992;2023-06-14T15:14:11;42.90;12.10
68217;DHT22;55037;52.354;4.992;2023-06-14T15:16:38;43.10;12.10
68217;DHT22;55037;52.354;4.992;2023-06-14T15:19:06;43.10;12.10
68217;DHT22;55037;52.354;4.992;2023-06-14T15:21:33;43.00;12.00
68217;DHT22;55037;52.354;4.992;2023-06-14T15:24:00;43.10;12.30
68217;DHT22;55037;52.354;4.992;2023-06-14T15:26:28;43.00;12.30
68217;DHT22;55037;52.354;4.992;2023-06-14T15:28:56;42.90;12.10
68217;DHT22;55037;52.354;4.992;2023-06-14T15:31:23;42.80;12.20
68217;DHT22;55037;52.354;4.992;2023-06-14T15:33:54;42.80;12.30
68217;DHT22;55037;52.354;4.992;2023-06-14T15:36:21;42.50;12.10
68217;DHT22;55037;52.354;4.992;2023-06-14T15:38:49;42.40;12.40
68217;DHT22;55037;52.354;4.992;2023-06-14T15:41:16;42.30;12.60
68217;DHT22;55037;52.354;4.992;2023-06-14T15:43:43;42.30;12.80
68217;DHT22;55037;52.354;4.992;2023-06-14T15:46:10;42.50;13.10
68217;DHT22;55037;52.354;4.992;2023-06-14T15:48:38;42.60;13.00
68217;DHT22;55037;52.354;4.992;2023-06-14T15:51:05;42.70;13.00
68217;DHT22;55037;52.354;4.992;2023-06-14T15:53:32;42.90;12.70
68217;DHT22;55037;52.354;4.992;2023-06-14T15:56:01;42.80;12.50
68217;DHT22;55037;52.354;4.992;2023-06-14T15:58:28;42.60;12.60
68217;DHT22;55037;52.354;4.992;2023-06-14T16:00:56;42.50;12.80